createdAt,value
2018-03-11T00:00:21.512Z,0.00
2018-03-11T00:01:21.574Z,0.00
2018-03-11T00:02:21.603Z,0.00
2018-03-11T00:03:21.645Z,0.00
2018-03-11T00:04:21.691Z,0.00
2018-03-11T00:05:21.733Z,0.00
2018-03-11T00:06:21.795Z,0.00
2018-03-11T00:07:21.823Z,0.00
2018-03-11T00:08:21.883Z,0.00
2018-03-11T00:09:21.913Z,0.00
2018-03-11T00:10:21.960Z,0.00
2018-03-11T00:11:22.001Z,0.00
2018-03-11T00:12:22.047Z,0.00
2018-03-11T00:13:22.108Z,0.00
2018-03-11T00:14:22.133Z,0.00
2018-03-11T00:15:22.174Z,0.00
2018-03-11T00:16:22.222Z,0.00
2018-03-11T00:17:22.283Z,0.00
2018-03-11T00:18:22.321Z,0.00
2018-03-11T00:19:22.369Z,0.00
2018-03-11T00:20:22.398Z,0.00
2018-03-11T00:21:22.444Z,0.00
2018-03-11T00:22:22.489Z,0.00
2018-03-11T00:23:22.533Z,0.00
2018-03-11T00:24:22.591Z,0.00
2018-03-11T00:25:22.622Z,0.00
2018-03-11T00:26:22.664Z,0.00
2018-03-11T00:27:22.709Z,0.00
2018-03-11T00:28:22.753Z,0.00
2018-03-11T00:29:22.813Z,0.00
2018-03-11T00:30:22.840Z,0.00
2018-03-11T00:31:22.890Z,0.00
2018-03-11T00:32:22.931Z,0.00
2018-03-11T00:33:22.991Z,0.00
2018-03-11T00:34:23.020Z,0.00
2018-03-11T00:35:23.079Z,0.00
2018-03-11T00:36:23.108Z,0.00
2018-03-11T00:37:23.153Z,0.00
2018-03-11T00:38:23.199Z,0.00
2018-03-11T00:39:23.251Z,0.00
2018-03-11T00:40:23.302Z,0.00
2018-03-11T00:41:23.333Z,0.00
2018-03-11T00:42:23.376Z,0.00
2018-03-11T00:43:23.440Z,0.00
2018-03-11T00:44:23.466Z,0.00
2018-03-11T00:45:23.533Z,0.00
2018-03-11T00:46:23.555Z,0.00
2018-03-11T00:47:23.600Z,0.00
2018-03-11T00:48:23.644Z,0.00
2018-03-11T00:49:23.691Z,0.00
2018-03-11T00:50:23.752Z,0.00
2018-03-11T00:51:23.780Z,0.00
2018-03-11T00:52:23.824Z,0.00
2018-03-11T00:53:23.873Z,0.00
2018-03-11T00:54:23.930Z,0.00
2018-03-11T00:55:23.963Z,0.00
2018-03-11T00:56:24.004Z,0.00
2018-03-11T00:57:24.049Z,0.00
2018-03-11T00:58:24.093Z,0.00
2018-03-11T00:59:24.154Z,0.00
2018-03-11T01:00:24.186Z,0.00
2018-03-11T01:01:24.228Z,0.00
2018-03-11T01:02:24.274Z,0.00
2018-03-11T01:03:24.318Z,0.00
2018-03-11T01:04:24.383Z,0.00
2018-03-11T01:05:24.410Z,0.00
2018-03-11T01:06:24.453Z,0.00
2018-03-11T01:07:24.498Z,0.00
2018-03-11T01:08:24.545Z,0.00
2018-03-11T01:09:24.605Z,0.00
2018-03-11T01:10:24.636Z,0.00
2018-03-11T01:11:24.679Z,0.00
2018-03-11T01:12:24.724Z,0.00
2018-03-11T01:13:24.786Z,0.00
2018-03-11T01:14:24.818Z,0.00
2018-03-11T01:15:24.876Z,0.00
2018-03-11T01:16:24.909Z,0.00
2018-03-11T01:17:24.950Z,0.00
2018-03-11T01:18:25.010Z,0.00
2018-03-11T01:19:25.046Z,0.00
2018-03-11T01:20:25.100Z,0.00
2018-03-11T01:21:25.134Z,0.00
2018-03-11T01:22:25.178Z,0.00
2018-03-11T01:23:25.237Z,0.00
2018-03-11T01:24:25.268Z,0.00
2018-03-11T01:25:25.313Z,0.00
2018-03-11T01:26:25.358Z,0.00
2018-03-11T01:27:25.403Z,0.00
2018-03-11T01:28:25.464Z,0.00
2018-03-11T01:29:25.495Z,0.00
2018-03-11T01:30:25.544Z,0.00
2018-03-11T01:31:25.607Z,0.00
2018-03-11T01:32:25.633Z,0.00
2018-03-11T01:33:25.675Z,0.00
2018-03-11T01:34:25.725Z,0.00
2018-03-11T01:35:25.761Z,0.00
2018-03-11T01:36:25.827Z,0.00
2018-03-11T01:37:25.875Z,0.00
2018-03-11T01:38:25.902Z,0.00
2018-03-11T01:39:25.947Z,0.00
2018-03-11T01:40:25.994Z,0.00
2018-03-11T01:41:26.043Z,0.00
2018-03-11T01:42:26.101Z,0.00
2018-03-11T01:43:26.138Z,0.00
2018-03-11T01:44:26.177Z,0.00
2018-03-11T01:45:26.228Z,0.00
2018-03-11T01:46:26.265Z,0.00
2018-03-11T01:47:26.327Z,0.00
2018-03-11T01:48:26.358Z,0.00
2018-03-11T01:49:26.406Z,0.00
2018-03-11T01:50:26.446Z,0.00
2018-03-11T01:51:26.497Z,0.00
2018-03-11T01:52:26.561Z,0.00
2018-03-11T01:53:26.583Z,0.00
2018-03-11T01:54:26.629Z,0.00
2018-03-11T01:55:26.674Z,0.00
2018-03-11T01:56:26.722Z,0.00
2018-03-11T01:57:26.783Z,0.00
2018-03-11T01:58:26.851Z,0.00
2018-03-11T01:59:26.858Z,0.00
2018-03-11T02:00:26.905Z,0.00
2018-03-11T02:01:26.947Z,0.00
2018-03-11T02:02:26.997Z,0.00
2018-03-11T02:03:27.055Z,0.00
2018-03-11T02:04:27.084Z,0.00
2018-03-11T02:05:27.128Z,0.00
2018-03-11T02:06:27.175Z,0.00
2018-03-11T02:07:27.219Z,0.00
2018-03-11T02:08:27.287Z,0.00
2018-03-11T02:09:27.329Z,0.00
2018-03-11T02:10:27.360Z,0.00
2018-03-11T02:11:27.402Z,0.00
2018-03-11T02:12:27.446Z,0.00
2018-03-11T02:13:27.509Z,0.00
2018-03-11T02:14:27.541Z,0.00
2018-03-11T02:15:27.586Z,0.00
2018-03-11T02:16:27.629Z,0.00
2018-03-11T02:17:27.674Z,0.00
2018-03-11T02:18:27.733Z,0.00
2018-03-11T02:19:27.780Z,0.00
2018-03-11T02:20:27.810Z,0.00
2018-03-11T02:21:27.856Z,0.00
2018-03-11T02:22:27.901Z,0.00
2018-03-11T02:23:27.963Z,0.00
2018-03-11T02:24:27.996Z,0.00
2018-03-11T02:25:28.039Z,0.00
2018-03-11T02:26:28.083Z,0.00
2018-03-11T02:27:28.129Z,0.00
2018-03-11T02:28:28.193Z,0.00
2018-03-11T02:29:28.221Z,0.00
2018-03-11T02:30:28.286Z,0.00
2018-03-11T02:31:28.312Z,0.00
2018-03-11T02:32:28.357Z,0.00
2018-03-11T02:33:28.404Z,0.00
2018-03-11T02:34:28.453Z,0.00
2018-03-11T02:35:28.510Z,0.00
2018-03-11T02:36:28.539Z,0.00
2018-03-11T02:37:28.588Z,0.00
2018-03-11T02:38:28.635Z,0.00
2018-03-11T02:39:28.697Z,0.00
2018-03-11T02:40:28.725Z,0.00
2018-03-11T02:41:28.784Z,0.00
2018-03-11T02:42:28.816Z,0.00
2018-03-11T02:43:28.863Z,0.00
2018-03-11T02:44:28.905Z,0.00
2018-03-11T02:45:28.951Z,0.00
2018-03-11T02:46:29.010Z,0.00
2018-03-11T02:47:29.040Z,0.00
2018-03-11T02:48:29.088Z,0.00
2018-03-11T02:49:29.133Z,0.00
2018-03-11T02:50:29.181Z,0.00
2018-03-11T02:51:29.242Z,0.00
2018-03-11T02:52:29.271Z,0.00
2018-03-11T02:53:29.318Z,0.00
2018-03-11T02:54:29.363Z,0.00
2018-03-11T02:55:29.408Z,0.00
2018-03-11T02:56:29.469Z,0.00
2018-03-11T02:57:29.504Z,0.00
2018-03-11T02:58:29.542Z,0.00
2018-03-11T02:59:29.594Z,0.00
2018-03-11T03:00:29.636Z,0.00
2018-03-11T03:01:29.696Z,0.00
2018-03-11T03:02:29.740Z,0.00
2018-03-11T03:03:29.775Z,0.00
2018-03-11T03:04:29.817Z,0.00
2018-03-11T03:05:29.863Z,0.00
2018-03-11T03:06:29.931Z,0.00
2018-03-11T03:07:29.957Z,0.00
2018-03-11T03:08:30.000Z,0.00
2018-03-11T03:09:30.049Z,0.00
2018-03-11T03:10:30.094Z,0.00
2018-03-11T03:11:30.153Z,0.00
2018-03-11T03:12:30.193Z,0.00
2018-03-11T03:13:30.254Z,0.00
2018-03-11T03:14:30.282Z,0.00
2018-03-11T03:15:30.321Z,0.00
2018-03-11T03:16:30.368Z,0.00
2018-03-11T03:17:30.414Z,0.00
2018-03-11T03:18:30.472Z,0.00
2018-03-11T03:19:30.504Z,0.00
2018-03-11T03:20:30.554Z,0.00
2018-03-11T03:21:30.599Z,0.00
2018-03-11T03:22:30.642Z,0.00
2018-03-11T03:23:30.703Z,0.00
2018-03-11T03:24:31.538Z,0.00
2018-03-11T03:25:30.788Z,0.00
2018-03-11T03:26:30.827Z,0.00
2018-03-11T03:27:30.873Z,0.00
2018-03-11T03:28:30.935Z,0.00
2018-03-11T03:29:30.961Z,0.00
2018-03-11T03:30:31.008Z,0.00
2018-03-11T03:31:31.055Z,0.00
2018-03-11T03:32:31.102Z,0.00
2018-03-11T03:33:31.164Z,0.00
2018-03-11T03:34:31.189Z,0.00
2018-03-11T03:35:31.236Z,0.00
2018-03-11T03:36:31.282Z,0.00
2018-03-11T03:37:31.329Z,0.00
2018-03-11T03:38:31.441Z,0.00
2018-03-11T03:39:31.422Z,0.00
2018-03-11T03:40:31.469Z,0.00
2018-03-11T03:41:31.513Z,0.00
2018-03-11T03:42:31.558Z,0.00
2018-03-11T03:43:31.622Z,0.00
2018-03-11T03:44:31.651Z,0.00
2018-03-11T03:45:31.696Z,0.00
2018-03-11T03:46:31.760Z,0.00
2018-03-11T03:47:31.787Z,0.00
2018-03-11T03:48:31.837Z,0.00
2018-03-11T03:49:31.883Z,0.00
2018-03-11T03:50:31.928Z,0.00
2018-03-11T03:51:31.988Z,0.00
2018-03-11T03:52:32.017Z,0.00
2018-03-11T03:53:32.067Z,0.00
2018-03-11T03:54:32.109Z,0.00
2018-03-11T03:55:32.155Z,0.00
2018-03-11T03:56:32.219Z,0.00
2018-03-11T03:57:32.246Z,0.00
2018-03-11T03:58:32.321Z,0.00
2018-03-11T03:59:32.337Z,0.00
2018-03-11T04:00:32.386Z,0.00
2018-03-11T04:01:32.446Z,0.00
2018-03-11T04:02:32.476Z,0.00
2018-03-11T04:03:32.522Z,0.00
2018-03-11T04:04:32.584Z,0.00
2018-03-11T04:05:32.616Z,0.00
2018-03-11T04:06:32.669Z,0.00
2018-03-11T04:07:32.704Z,0.00
2018-03-11T04:08:32.751Z,0.00
2018-03-11T04:09:32.815Z,0.00
2018-03-11T04:10:32.843Z,0.00
2018-03-11T04:11:32.888Z,0.00
2018-03-11T04:12:32.933Z,0.00
2018-03-11T04:13:32.979Z,0.00
2018-03-11T04:14:33.042Z,0.00
2018-03-11T04:15:33.070Z,0.00
2018-03-11T04:16:33.116Z,0.00
2018-03-11T04:17:33.164Z,0.00
2018-03-11T04:18:33.211Z,0.00
2018-03-11T04:19:33.271Z,0.00
2018-03-11T04:20:33.298Z,0.00
2018-03-11T04:21:33.347Z,0.00
2018-03-11T04:22:33.389Z,0.00
2018-03-11T04:23:33.435Z,0.00
2018-03-11T04:24:33.501Z,0.00
2018-03-11T04:25:33.529Z,0.00
2018-03-11T04:26:33.575Z,0.00
2018-03-11T04:27:33.621Z,0.00
2018-03-11T04:28:33.665Z,0.00
2018-03-11T04:29:33.734Z,0.00
2018-03-11T04:30:33.760Z,0.00
2018-03-11T04:31:33.801Z,0.00
2018-03-11T04:32:33.849Z,0.00
2018-03-11T04:33:33.894Z,0.00
2018-03-11T04:34:33.956Z,0.00
2018-03-11T04:35:34.009Z,0.00
2018-03-11T04:36:34.032Z,0.00
2018-03-11T04:37:34.081Z,0.00
2018-03-11T04:38:34.123Z,0.00
2018-03-11T04:39:34.179Z,0.00
2018-03-11T04:40:34.231Z,0.00
2018-03-11T04:41:34.260Z,0.00
2018-03-11T04:42:34.305Z,0.00
2018-03-11T04:43:34.356Z,0.00
2018-03-11T04:44:34.399Z,0.00
2018-03-11T04:45:34.459Z,0.00
2018-03-11T04:46:34.490Z,0.00
2018-03-11T04:47:34.542Z,0.00
2018-03-11T04:48:34.581Z,0.00
2018-03-11T04:49:34.625Z,0.00
2018-03-11T04:50:34.685Z,0.00
2018-03-11T04:51:34.730Z,0.00
2018-03-11T04:52:34.765Z,0.00
2018-03-11T04:53:34.806Z,0.00
2018-03-11T04:54:34.848Z,0.00
2018-03-11T04:55:34.896Z,0.00
2018-03-11T04:56:34.958Z,0.00
2018-03-11T04:57:34.988Z,0.00
2018-03-11T04:58:35.030Z,0.00
2018-03-11T04:59:35.078Z,0.00
2018-03-11T05:00:35.120Z,0.00
2018-03-11T05:01:35.186Z,0.00
2018-03-11T05:02:35.209Z,0.00
2018-03-11T05:03:35.256Z,0.00
2018-03-11T05:04:35.300Z,0.00
2018-03-11T05:05:35.343Z,0.00
2018-03-11T05:06:35.404Z,0.00
2018-03-11T05:07:35.436Z,0.00
2018-03-11T05:08:35.480Z,0.00
2018-03-11T05:09:35.523Z,0.00
2018-03-11T05:10:35.566Z,0.00
2018-03-11T05:11:35.637Z,4.00
2018-03-11T05:12:35.673Z,0.00
2018-03-11T05:13:35.703Z,0.00
2018-03-11T05:14:35.747Z,4.00
2018-03-11T05:15:35.790Z,0.00
2018-03-11T05:16:35.834Z,4.00
2018-03-11T05:17:35.900Z,4.00
2018-03-11T05:18:35.923Z,8.00
2018-03-11T05:19:35.967Z,8.00
2018-03-11T05:20:36.012Z,12.00
2018-03-11T05:21:36.056Z,12.00
2018-03-11T05:22:36.117Z,16.00
2018-03-11T05:23:36.144Z,16.00
2018-03-11T05:24:36.191Z,20.00
2018-03-11T05:25:36.241Z,24.00
2018-03-11T05:26:36.277Z,32.00
2018-03-11T05:27:36.340Z,36.00
2018-03-11T05:28:36.368Z,44.00
2018-03-11T05:29:36.414Z,52.00
2018-03-11T05:30:36.452Z,60.00
2018-03-11T05:31:36.505Z,72.00
2018-03-11T05:32:36.558Z,88.00
2018-03-11T05:33:36.594Z,100.00
2018-03-11T05:34:36.628Z,116.00
2018-03-11T05:35:36.673Z,128.00
2018-03-11T05:36:36.719Z,136.00
2018-03-11T05:37:36.779Z,152.00
2018-03-11T05:38:36.809Z,168.00
2018-03-11T05:39:36.849Z,192.00
2018-03-11T05:40:36.895Z,204.00
2018-03-11T05:41:36.953Z,224.00
2018-03-11T05:42:36.985Z,248.00
2018-03-11T05:43:37.038Z,268.00
2018-03-11T05:44:37.074Z,292.00
2018-03-11T05:45:37.112Z,324.00
2018-03-11T05:46:37.154Z,356.00
2018-03-11T05:47:37.200Z,388.00
2018-03-11T05:48:37.258Z,428.00
2018-03-11T05:49:37.286Z,472.00
2018-03-11T05:50:37.338Z,512.00
2018-03-11T05:51:37.373Z,552.00
2018-03-11T05:52:37.416Z,588.00
2018-03-11T05:53:37.477Z,624.00
2018-03-11T05:54:37.504Z,656.00
2018-03-11T05:55:37.556Z,692.00
2018-03-11T05:56:37.591Z,736.00
2018-03-11T05:57:37.635Z,804.00
2018-03-11T05:58:37.702Z,892.00
2018-03-11T05:59:37.738Z,972.00
2018-03-11T06:00:37.765Z,1040.00
2018-03-11T06:01:37.810Z,1080.00
2018-03-11T06:02:37.852Z,1132.00
2018-03-11T06:03:37.898Z,1184.00
2018-03-11T06:04:37.955Z,1220.00
2018-03-11T06:05:37.983Z,1260.00
2018-03-11T06:06:38.025Z,1320.00
2018-03-11T06:07:38.070Z,1400.00
2018-03-11T06:08:38.113Z,1476.00
2018-03-11T06:09:38.175Z,1556.00
2018-03-11T06:10:38.201Z,1656.00
2018-03-11T06:11:38.242Z,1804.00
2018-03-11T06:12:38.288Z,1976.00
2018-03-11T06:13:38.330Z,2168.00
2018-03-11T06:14:38.388Z,2308.00
2018-03-11T06:15:38.418Z,2396.00
2018-03-11T06:16:38.462Z,2424.00
2018-03-11T06:17:38.501Z,2424.00
2018-03-11T06:18:38.545Z,2436.00
2018-03-11T06:19:38.603Z,2464.00
2018-03-11T06:20:38.631Z,2500.00
2018-03-11T06:21:38.677Z,2512.00
2018-03-11T06:22:38.718Z,2500.00
2018-03-11T06:23:38.760Z,2532.00
2018-03-11T06:24:38.825Z,2584.00
2018-03-11T06:25:38.845Z,2624.00
2018-03-11T06:26:38.889Z,2632.00
2018-03-11T06:27:38.932Z,2684.00
2018-03-11T06:28:38.974Z,2848.00
2018-03-11T06:29:39.044Z,3044.00
2018-03-11T06:30:39.062Z,3132.00
2018-03-11T06:31:39.106Z,3124.00
2018-03-11T06:32:39.150Z,3092.00
2018-03-11T06:33:39.192Z,3064.00
2018-03-11T06:34:39.256Z,3140.00
2018-03-11T06:35:39.280Z,3288.00
2018-03-11T06:36:39.320Z,3376.00
2018-03-11T06:37:39.368Z,3328.00
2018-03-11T06:38:39.412Z,3180.00
2018-03-11T06:39:39.479Z,3192.00
2018-03-11T06:40:39.496Z,3272.00
2018-03-11T06:41:39.540Z,3408.00
2018-03-11T06:42:39.580Z,3600.00
2018-03-11T06:43:39.627Z,3756.00
2018-03-11T06:44:39.687Z,3780.00
2018-03-11T06:45:39.712Z,3736.00
2018-03-11T06:46:39.757Z,3720.00
2018-03-11T06:47:39.804Z,3784.00
2018-03-11T06:48:39.842Z,3872.00
2018-03-11T06:49:39.903Z,3952.00
2018-03-11T06:50:39.929Z,4068.00
2018-03-11T06:51:39.972Z,4316.00
2018-03-11T06:52:40.022Z,4668.00
2018-03-11T06:53:40.063Z,5044.00
2018-03-11T06:54:40.119Z,5328.00
2018-03-11T06:55:40.166Z,5524.00
2018-03-11T06:56:40.191Z,5652.00
2018-03-11T06:57:40.235Z,5788.00
2018-03-11T06:58:40.280Z,5892.00
2018-03-11T06:59:40.321Z,6040.00
2018-03-11T07:00:40.383Z,6224.00
2018-03-11T07:02:01.434Z,6436.00
2018-03-11T07:02:40.453Z,6640.00
2018-03-11T07:03:40.495Z,6684.00
2018-03-11T07:04:40.541Z,6644.00
2018-03-11T07:05:40.607Z,6672.00
2018-03-11T07:06:40.638Z,6756.00
2018-03-11T07:07:40.672Z,6872.00
2018-03-11T07:08:40.717Z,7024.00
2018-03-11T07:09:40.760Z,7176.00
2018-03-11T07:10:40.832Z,7148.00
2018-03-11T07:11:40.847Z,7096.00
2018-03-11T07:12:40.890Z,7032.00
2018-03-11T07:13:40.937Z,7192.00
2018-03-11T07:14:40.982Z,7448.00
2018-03-11T07:15:41.037Z,7680.00
2018-03-11T07:16:41.083Z,7932.00
2018-03-11T07:17:41.116Z,8160.00
2018-03-11T07:18:41.156Z,8400.00
2018-03-11T07:19:41.203Z,8732.00
2018-03-11T07:20:41.246Z,8944.00
2018-03-11T07:21:41.304Z,9196.00
2018-03-11T07:22:41.333Z,9568.00
2018-03-11T07:23:41.379Z,9988.00
2018-03-11T07:24:41.422Z,10336.00
2018-03-11T07:25:41.461Z,10576.00
2018-03-11T07:26:41.523Z,10716.00
2018-03-11T07:27:41.567Z,11004.00
2018-03-11T07:28:41.595Z,11116.00
2018-03-11T07:29:41.638Z,11152.00
2018-03-11T07:30:41.682Z,11452.00
2018-03-11T07:31:41.727Z,12628.00
2018-03-11T07:32:41.793Z,11656.00
2018-03-11T07:33:41.830Z,11700.00
2018-03-11T07:34:41.860Z,12804.00
2018-03-11T07:35:41.905Z,12068.00
2018-03-11T07:36:41.949Z,12048.00
2018-03-11T07:37:42.009Z,12296.00
2018-03-11T07:38:42.037Z,12204.00
2018-03-11T07:39:42.097Z,12412.00
2018-03-11T07:40:42.126Z,12592.00
2018-03-11T07:41:42.172Z,12588.00
2018-03-11T07:42:42.214Z,12396.00
2018-03-11T07:43:42.264Z,12416.00
2018-03-11T07:44:42.319Z,12820.00
2018-03-11T07:45:42.355Z,12936.00
2018-03-11T07:46:42.392Z,13020.00
2018-03-11T07:47:42.439Z,13220.00
2018-03-11T07:48:42.483Z,13432.00
2018-03-11T07:49:42.547Z,13856.00
2018-03-11T07:50:42.577Z,13816.00
2018-03-11T07:51:42.617Z,14284.00
2018-03-11T07:52:42.663Z,14920.00
2018-03-11T07:53:42.706Z,15596.00
2018-03-11T07:54:42.770Z,16364.00
2018-03-11T07:55:42.799Z,19232.00
2018-03-11T07:56:42.841Z,18272.00
2018-03-11T07:57:42.889Z,17536.00
2018-03-11T07:58:42.939Z,17824.00
2018-03-11T07:59:42.997Z,17024.00
2018-03-11T08:00:43.022Z,17088.00
2018-03-11T08:01:43.068Z,15980.00
2018-03-11T08:02:43.113Z,15028.00
2018-03-11T08:03:43.158Z,14672.00
2018-03-11T08:04:43.223Z,14564.00
2018-03-11T08:05:43.252Z,14712.00
2018-03-11T08:06:43.298Z,14864.00
2018-03-11T08:07:43.339Z,14688.00
2018-03-11T08:08:43.386Z,14436.00
2018-03-11T08:09:43.454Z,14228.00
2018-03-11T08:10:43.474Z,14092.00
2018-03-11T08:11:43.528Z,14252.00
2018-03-11T08:12:43.567Z,14276.00
2018-03-11T08:13:43.615Z,13824.00
2018-03-11T08:14:43.686Z,13516.00
2018-03-11T08:15:43.708Z,13328.00
2018-03-11T08:16:43.751Z,13144.00
2018-03-11T08:17:43.800Z,13000.00
2018-03-11T08:18:43.849Z,13364.00
2018-03-11T08:19:43.905Z,14304.00
2018-03-11T08:20:43.952Z,15396.00
2018-03-11T08:21:43.981Z,16300.00
2018-03-11T08:22:44.029Z,16528.00
2018-03-11T08:23:44.072Z,15048.00
2018-03-11T08:24:44.117Z,15184.00
2018-03-11T08:25:44.194Z,14504.00
2018-03-11T08:26:44.225Z,14220.00
2018-03-11T08:27:44.256Z,15012.00
2018-03-11T08:28:44.305Z,19616.00
2018-03-11T08:29:44.353Z,18944.00
2018-03-11T08:30:44.400Z,23648.00
2018-03-11T08:31:44.456Z,17696.00
2018-03-11T08:32:44.487Z,17792.00
2018-03-11T08:33:44.533Z,18624.00
2018-03-11T08:34:44.580Z,19136.00
2018-03-11T08:35:44.631Z,18752.00
2018-03-11T08:36:44.697Z,15780.00
2018-03-11T08:37:44.734Z,15356.00
2018-03-11T08:38:44.765Z,15696.00
2018-03-11T08:39:44.810Z,16548.00
2018-03-11T08:40:44.857Z,22080.00
2018-03-11T08:41:44.922Z,29856.00
2018-03-11T08:42:44.957Z,25632.00
2018-03-11T08:43:44.996Z,19008.00
2018-03-11T08:44:45.043Z,17728.00
2018-03-11T08:45:45.089Z,17312.00
2018-03-11T08:46:45.151Z,16116.00
2018-03-11T08:47:45.181Z,16036.00
2018-03-11T08:48:45.251Z,16664.00
2018-03-11T08:49:45.274Z,17408.00
2018-03-11T08:50:45.332Z,17408.00
2018-03-11T08:51:45.365Z,17248.00
2018-03-11T08:52:45.416Z,16908.00
2018-03-11T08:53:45.619Z,17344.00
2018-03-11T08:54:45.504Z,17248.00
2018-03-11T08:55:45.553Z,16512.00
2018-03-11T08:56:45.600Z,15824.00
2018-03-11T08:57:45.654Z,15488.00
2018-03-11T08:58:45.715Z,15400.00
2018-03-11T08:59:45.752Z,15372.00
2018-03-11T09:00:46.551Z,15260.00
2018-03-11T09:01:45.839Z,15288.00
2018-03-11T09:02:45.876Z,15364.00
2018-03-11T09:03:45.925Z,15576.00
2018-03-11T09:04:45.986Z,16084.00
2018-03-11T09:05:46.016Z,16956.00
2018-03-11T09:06:46.063Z,18208.00
2018-03-11T09:07:46.108Z,19200.00
2018-03-11T09:08:46.156Z,20000.00
2018-03-11T09:09:46.217Z,20800.00
2018-03-11T09:10:46.247Z,21536.00
2018-03-11T09:11:46.291Z,21440.00
2018-03-11T09:12:46.341Z,20704.00
2018-03-11T09:13:46.384Z,19296.00
2018-03-11T09:14:46.450Z,18816.00
2018-03-11T09:15:46.508Z,18688.00
2018-03-11T09:16:46.523Z,19168.00
2018-03-11T09:17:46.569Z,19712.00
2018-03-11T09:18:46.616Z,18944.00
2018-03-11T09:19:46.667Z,17536.00
2018-03-11T09:22:22.993Z,15840.00
2018-03-11T09:24:59.009Z,14936.00
2018-03-11T09:25:59.056Z,14356.00
2018-03-11T09:26:59.079Z,13704.00
2018-03-11T09:27:59.126Z,13232.00
2018-03-11T09:28:59.172Z,13224.00
2018-03-11T09:29:59.219Z,13452.00
2018-03-11T09:30:59.281Z,13680.00
2018-03-11T09:31:59.312Z,13748.00
2018-03-11T09:32:59.357Z,13660.00
2018-03-11T09:33:59.405Z,13524.00
2018-03-11T09:34:59.450Z,13488.00
2018-03-11T09:35:59.511Z,13540.00
2018-03-11T09:36:59.546Z,13584.00
2018-03-11T09:37:59.588Z,13448.00
2018-03-11T09:38:59.639Z,13104.00
2018-03-11T09:39:59.680Z,12544.00
2018-03-11T09:40:59.744Z,11936.00
2018-03-11T09:41:59.770Z,11444.00
2018-03-11T09:42:59.820Z,11100.00
2018-03-11T09:43:59.863Z,10916.00
2018-03-11T09:44:59.912Z,10932.00
2018-03-11T09:45:59.970Z,11108.00
2018-03-11T09:47:00.002Z,11304.00
2018-03-11T09:48:00.048Z,11500.00
2018-03-11T09:49:00.112Z,11688.00
2018-03-11T09:50:00.141Z,11872.00
2018-03-11T09:51:00.188Z,11948.00
2018-03-11T09:52:00.248Z,11928.00
2018-03-11T09:53:00.279Z,11852.00
2018-03-11T09:54:00.322Z,11824.00
2018-03-11T09:55:00.387Z,12004.00
2018-03-11T09:56:00.415Z,12320.00
2018-03-11T09:57:00.472Z,12628.00
2018-03-11T09:58:00.505Z,12752.00
2018-03-11T09:59:00.553Z,12576.00
2018-03-11T10:00:00.618Z,12196.00
2018-03-11T10:01:00.646Z,11944.00
2018-03-11T10:02:00.695Z,12048.00
2018-03-11T10:03:00.736Z,12364.00
2018-03-11T10:04:00.800Z,12844.00
2018-03-11T10:05:00.828Z,13404.00
2018-03-11T10:06:00.898Z,13964.00
2018-03-11T10:07:00.918Z,14428.00
2018-03-11T10:08:00.968Z,14724.00
2018-03-11T10:09:01.027Z,14788.00
2018-03-11T10:10:01.058Z,14572.00
2018-03-11T10:11:01.102Z,14152.00
2018-03-11T10:12:01.167Z,13680.00
2018-03-11T10:13:01.195Z,13348.00
2018-03-11T10:14:01.257Z,13156.00
2018-03-11T10:15:01.287Z,13032.00
2018-03-11T10:16:01.349Z,13176.00
2018-03-11T10:17:01.394Z,13616.00
2018-03-11T10:18:01.425Z,14080.00
2018-03-11T10:19:01.496Z,14184.00
2018-03-11T10:20:01.517Z,13752.00
2018-03-11T10:21:01.563Z,12964.00
2018-03-11T10:22:01.614Z,12336.00
2018-03-11T10:23:01.662Z,12232.00
2018-03-11T10:24:01.720Z,12392.00
2018-03-11T10:25:01.756Z,12572.00
2018-03-11T10:26:01.793Z,12764.00
2018-03-11T10:27:01.894Z,13008.00
2018-03-11T10:28:01.886Z,13220.00
2018-03-11T10:29:01.953Z,13272.00
2018-03-11T10:30:01.979Z,13200.00
2018-03-11T10:31:02.027Z,13052.00
2018-03-11T10:32:02.085Z,12912.00
2018-03-11T10:33:02.120Z,12996.00
2018-03-11T10:34:02.182Z,13248.00
2018-03-11T10:35:02.234Z,13444.00
2018-03-11T10:36:02.258Z,13556.00
2018-03-11T10:37:02.305Z,13640.00
2018-03-11T10:38:02.351Z,13752.00
2018-03-11T10:39:02.492Z,13848.00
2018-03-11T10:40:02.462Z,13992.00
2018-03-11T10:41:02.490Z,14228.00
2018-03-11T10:42:02.534Z,14612.00
2018-03-11T10:43:02.584Z,15116.00
2018-03-11T10:44:02.628Z,15704.00
2018-03-11T10:45:02.705Z,16432.00
2018-03-11T10:46:02.728Z,17504.00
2018-03-11T10:47:02.769Z,18464.00
2018-03-11T10:48:02.815Z,19200.00
2018-03-11T10:49:02.867Z,19552.00
2018-03-11T10:50:03.003Z,19552.00
2018-03-11T10:51:02.973Z,19392.00
2018-03-11T10:52:03.003Z,19232.00
2018-03-11T10:53:03.086Z,18880.00
2018-03-11T10:54:03.096Z,18368.00
2018-03-11T10:55:03.144Z,17952.00
2018-03-11T10:56:03.205Z,17760.00
2018-03-11T10:57:03.255Z,17696.00
2018-03-11T10:58:03.280Z,17080.00
2018-03-11T10:59:03.328Z,15996.00
2018-03-11T11:00:03.386Z,14604.00
2018-03-11T11:01:03.437Z,13352.00
2018-03-11T11:02:03.476Z,12428.00
2018-03-11T11:03:03.531Z,11736.00
2018-03-11T11:04:03.561Z,11168.00
2018-03-11T11:05:03.610Z,10600.00
2018-03-11T11:06:03.654Z,10032.00
2018-03-11T11:07:03.720Z,9512.00
2018-03-11T11:08:03.763Z,9120.00
2018-03-11T11:09:03.797Z,8772.00
2018-03-11T11:10:03.842Z,8372.00
2018-03-11T11:11:03.889Z,8020.00
2018-03-11T11:12:03.938Z,7860.00
2018-03-11T11:13:03.998Z,7868.00
2018-03-11T11:14:04.026Z,8028.00
2018-03-11T11:15:04.073Z,8204.00
2018-03-11T11:16:04.120Z,8328.00
2018-03-11T11:17:04.166Z,8408.00
2018-03-11T11:18:04.226Z,8472.00
2018-03-11T11:19:04.274Z,8520.00
2018-03-11T11:20:04.318Z,8532.00
2018-03-11T11:21:04.350Z,8544.00
2018-03-11T11:22:04.396Z,8620.00
2018-03-11T11:23:04.460Z,8752.00
2018-03-11T11:25:40.608Z,8860.00
2018-03-11T11:26:40.602Z,8800.00
2018-03-11T11:27:40.647Z,8664.00
2018-03-11T11:28:40.715Z,8452.00
2018-03-11T11:29:40.736Z,8344.00
2018-03-11T11:30:40.783Z,8456.00
2018-03-11T11:31:40.831Z,8752.00
2018-03-11T11:32:40.903Z,9248.00
2018-03-11T11:33:40.940Z,9832.00
2018-03-11T11:34:40.967Z,10488.00
2018-03-11T11:35:41.014Z,11092.00
2018-03-11T11:36:41.057Z,11516.00
2018-03-11T11:37:41.104Z,11572.00
2018-03-11T11:38:41.170Z,11264.00
2018-03-11T11:39:41.213Z,10788.00
2018-03-11T11:40:41.245Z,10480.00
2018-03-11T11:41:41.291Z,10660.00
2018-03-11T11:42:41.336Z,11188.00
2018-03-11T11:43:41.402Z,12024.00
2018-03-11T11:44:41.430Z,12924.00
2018-03-11T11:45:41.476Z,13500.00
2018-03-11T11:46:41.521Z,13640.00
2018-03-11T11:47:41.575Z,13448.00
2018-03-11T11:48:41.689Z,13052.00
2018-03-11T11:49:41.665Z,12552.00
2018-03-11T11:50:41.706Z,12448.00
2018-03-11T11:51:41.752Z,12876.00
2018-03-11T11:52:41.803Z,13376.00
2018-03-11T11:53:41.860Z,13468.00
2018-03-11T11:56:17.796Z,12360.00
2018-03-11T11:57:17.826Z,12072.00
2018-03-11T11:58:17.874Z,12172.00
2018-03-11T11:59:17.920Z,12504.00
2018-03-11T12:00:17.984Z,13108.00
2018-03-11T12:01:18.014Z,13852.00
2018-03-11T12:02:18.061Z,14556.00
2018-03-11T12:03:18.102Z,15056.00
2018-03-11T12:04:18.154Z,15288.00
2018-03-11T12:05:18.249Z,15476.00
2018-03-11T12:06:18.247Z,15504.00
2018-03-11T12:07:18.287Z,15312.00
2018-03-11T12:08:18.336Z,15288.00
2018-03-11T12:10:55.043Z,18240.00
2018-03-11T12:11:55.074Z,19168.00
2018-03-11T12:12:55.123Z,19328.00
2018-03-11T12:13:55.168Z,18848.00
2018-03-11T12:14:55.215Z,18240.00
2018-03-11T12:15:55.276Z,17984.00
2018-03-11T12:16:55.308Z,17920.00
2018-03-11T12:17:55.353Z,17952.00
2018-03-11T12:18:55.407Z,18016.00
2018-03-11T12:19:55.446Z,18144.00
2018-03-11T12:20:55.518Z,18496.00
2018-03-11T12:21:55.541Z,19392.00
2018-03-11T12:22:55.589Z,21344.00
2018-03-11T12:23:55.633Z,23072.00
2018-03-11T12:24:55.682Z,23744.00
2018-03-11T12:25:55.754Z,24064.00
2018-03-11T12:26:55.774Z,23648.00
2018-03-11T12:27:55.821Z,23168.00
2018-03-11T12:28:55.873Z,23104.00
2018-03-11T12:29:55.919Z,23424.00
2018-03-11T12:30:55.984Z,23424.00
2018-03-11T12:31:56.011Z,22816.00
2018-03-11T12:32:56.057Z,21952.00
2018-03-11T12:33:56.105Z,21152.00
2018-03-11T12:34:56.156Z,20672.00
2018-03-11T12:35:56.215Z,20576.00
2018-03-11T12:36:56.250Z,20480.00